• Join FlightAware (Why Join?)
  • Login
  • US Flag 
09:14PM EDT


 

Airport Tracker/Info


-or-


 

Live Flight TrackerFlight Track Log ✈ SWA253 ✈ 11-Apr-2013 ✈ KOAK - KBUR

Flight Track Log - Related Links

Times and Time Zones

All times are in EDT time to prevent confusion due to time zone crossing. See the SWA253 flight status page for this flight to view local times or setup timezone preferences in your user account.

Time Position Orientation Groundspeed Altitude Reporting Facility
EDT Latitude Longitude Course Direction KTS MPH feet Rate Location/Type
11:13PM 37.7253 -122.2503 122° Southeast 170 196 1,000  Level Oakland Center
11:14PM 37.7564 -122.3064 305° West 207 238 3,100 2,460 Climbing Oakland Center
11:15PM 37.7372 -122.3817 252° West 231 266 6,100 2,760 Climbing Oakland Center
11:16PM 37.7000 -122.3833 182° South 274 315 7,000 2,760 Climbing Northern Cal TRACON
11:17PM 37.6167 -122.3667 171° South 305 351 9,900 1,800 Climbing Northern Cal TRACON
11:17PM 37.5725 -122.3658 179° South 314 361 10,000  Climbing Oakland Center
11:18PM 37.4758 -122.3511 173° South 349 402 10,000 1,440 Level Oakland Center
11:19PM 37.2507 -122.2847 122° Southeast  Level FlightAware Approximate
11:19PM 37.3733 -122.2928 156° South 348 400 13,000  Level Oakland Center
11:20PM 37.2997 -122.2111 139° Southeast 354 407 15,400 2,220 Climbing Oakland Center
11:21PM 37.2219 -122.1261 139° Southeast 370 426 17,600 2,160 Climbing Oakland Center
11:23PM 37.1419 -122.0367 138° Southeast 384 442 19,900 1,860 Climbing Oakland Center
11:24PM 37.0581 -121.9464 139° Southeast 399 459 21,500 1,560 Climbing Oakland Center
11:26PM 36.8811 -121.7528 139° Southeast 426 490 24,800 1,560 Climbing Oakland Center
11:27PM 36.7836 -121.6494 140° Southeast 443 510 26,300 1,620 Climbing Oakland Center
11:28PM 36.6908 -121.5469 138° Southeast 446 513 28,200 1,500 Climbing Oakland Center
11:29PM 36.5956 -121.4450 139° Southeast 451 519 29,400 1,320 Climbing Oakland Center
11:30PM 36.4994 -121.3397 139° Southeast 459 528 30,900 1,200 Climbing Oakland Center
11:31PM 36.4017 -121.2350 139° Southeast 462 532 31,900 420 Climbing Oakland Center
11:32PM 36.2811 -121.1053 139° Southeast 477 549 31,800 -720 Descending Oakland Center
11:33PM 36.1817 -120.9992 139° Southeast 475 547 30,500 -1,200 Descending Oakland Center
11:34PM 36.0867 -120.8989 140° Southeast 456 525 29,400 -780 Descending Oakland Center
11:35PM 35.9939 -120.8006 139° Southeast 444 511 29,000 -240 Descending Oakland Center
11:36PM 35.8994 -120.7017 140° Southeast 445 512 29,000  Level Oakland Center
11:37PM 35.8025 -120.5992 139° Southeast 457 526 29,000  Level Oakland Center
11:38PM 35.7036 -120.4958 140° Southeast 463 533 29,000  Level Oakland Center
11:39PM 35.6031 -120.3911 140° Southeast 471 542 29,000 -600 Level Oakland Center
11:40PM 35.5042 -120.2897 140° Southeast 458 527 27,900 -1,200 Descending Oakland Center
11:41PM 35.4167 -120.1983 140° Southeast 430 495 26,600 -1,140 Descending Oakland Center
11:42PM 35.3244 -120.1031 140° Southeast 412 474 25,600 -960 Descending Oakland Center
11:42PM 35.3081 -120.0856 139° Southeast 410 472 25,400 -1,080 Descending Los Angeles Center
11:43PM 35.2053 -119.9803 140° Southeast 401 461 24,200 -780 Descending Los Angeles Center
11:44PM 35.1228 -119.8961 140° Southeast 390 449 23,900 -300 Descending Los Angeles Center
11:45PM 35.0503 -119.8103 136° Southeast 369 425 23,700 -540 Descending Los Angeles Center
11:46PM 34.9828 -119.7167 131° Southeast 368 423 22,800 -900 Descending Los Angeles Center
11:47PM 34.9119 -119.6197 132° Southeast 380 437 21,900 -900 Descending Los Angeles Center
11:48PM 34.8372 -119.5183 132° Southeast 399 459 21,000 -1,500 Descending Los Angeles Center
11:49PM 34.7614 -119.4175 132° Southeast 405 466 18,900 -2,340 Descending Los Angeles Center
11:50PM 34.6736 -119.3017 133° Southeast 389 448 16,200 -2,280 Descending Los Angeles Center
11:51PM 34.6097 -119.2169 132° Southeast 369 425 14,300 -1,920 Descending Los Angeles Center
11:52PM 34.5425 -119.1283 133° Southeast 359 413 12,300 -1,440 Descending Los Angeles Center
11:54PM 34.4789 -119.0425 132° Southeast 334 384 11,100 -840 Descending Los Angeles Center
11:55PM 34.4258 -118.9642 129° Southeast 300 345 10,400 -1,080 Descending Los Angeles Center
11:56PM 34.3622 -118.8603 127° Southeast 274 315 8,900 -1,260 Descending Los Angeles Center
11:57PM 34.3139 -118.7908 130° Southeast 270 311 7,900 -1,260 Descending Los Angeles Center
11:58PM 34.2678 -118.7186 128° Southeast 271 312 6,400 -1,500 Descending Los Angeles Center
11:59PM 34.2222 -118.6425 126° Southeast 277 319 4,900 -960 Descending Los Angeles Center
12:00AM 34.2011 -118.5678 109° East 254 292 4,500 -420 Descending Los Angeles Center
12:01AM 34.1994 -118.4989 92° East 217 250 4,100 -1,140 Descending Los Angeles Center
12:02AM 34.1994 -118.4508 90° East 159 183 2,200 -1,440 Descending Los Angeles Center
12:03AM 34.1983 -118.3972 91° East 142 163 1,200 -720 Descending Los Angeles Center
12:04AM 34.1978 -118.3578 91° East 139 160 800 -420 Descending Los Angeles Center
12:06AM 34.2000 -118.3500 151° Southeast  Level FlightAware Approximate
12:13AM 34.2007 -118.3587 151° Southeast  Level Estimated